Time;durP1;ratioP1;P1;durP2;ratioP2;P2;SDS_P1;SDS_P2;PMS_P1;PMS_P2;Temp;Humidity;BMP_temperature;BMP_pressure;BME280_temperature;BME280_humidity;BME280_pressure;Samples;Min_cycle;Max_cycle;Signal;HPM_P1;HPM_P2
2024/01/23 00:00:31;;;;;;;27.35;4.97;;;5.80;99.90;;;;;;5070689;28;20033;-79
2024/01/23 00:02:57;;;;;;;30.48;5.00;;;5.70;99.90;;;;;;5053029;28;20035;-77
2024/01/23 00:05:23;;;;;;;29.02;5.57;;;5.70;99.90;;;;;;5070572;28;20038;-78
2024/01/23 00:07:48;;;;;;;30.42;5.13;;;5.80;99.90;;;;;;5070701;28;20028;-79
2024/01/23 00:10:14;;;;;;;25.02;4.90;;;5.80;99.90;;;;;;5070273;28;20043;-80
2024/01/23 00:12:40;;;;;;;29.35;5.15;;;5.90;99.90;;;;;;5070773;28;20497;-78
2024/01/23 00:15:06;;;;;;;28.00;5.38;;;5.90;99.90;;;;;;5052741;28;20052;-78
2024/01/23 00:17:32;;;;;;;24.33;4.82;;;5.80;99.90;;;;;;5070207;28;20515;-79
2024/01/23 00:19:57;;;;;;;28.05;5.40;;;5.90;99.90;;;;;;5070437;28;20054;-78
2024/01/23 00:22:23;;;;;;;26.23;4.60;;;5.90;99.90;;;;;;5070143;28;20243;-78
2024/01/23 00:24:49;;;;;;;27.83;4.25;;;5.90;99.90;;;;;;5070567;28;20066;-79
2024/01/23 00:27:14;;;;;;;25.25;5.88;;;6.00;99.90;;;;;;5051885;28;20135;-79
2024/01/23 00:29:40;;;;;;;26.83;4.80;;;6.00;99.90;;;;;;5069791;28;20029;-80
2024/01/23 00:32:06;;;;;;;29.15;4.53;;;6.00;99.90;;;;;;5070151;28;20031;-79
2024/01/23 00:34:32;;;;;;;23.40;5.38;;;6.00;99.90;;;;;;5070403;28;20032;-80
2024/01/23 00:36:58;;;;;;;33.83;5.45;;;6.00;99.90;;;;;;5070825;28;20021;-79
2024/01/23 00:39:24;;;;;;;20.73;4.65;;;5.90;99.90;;;;;;5069833;28;20097;-79
2024/01/23 00:41:51;;;;;;;26.25;4.90;;;6.00;99.90;;;;;;5070452;28;20470;-79
2024/01/23 00:44:16;;;;;;;24.65;4.35;;;6.10;99.90;;;;;;5069959;28;20043;-80
2024/01/23 00:46:42;;;;;;;26.42;5.07;;;6.10;99.90;;;;;;5070548;28;20486;-78
2024/01/23 00:49:08;;;;;;;24.48;4.93;;;6.10;99.90;;;;;;5070478;28;20028;-79
2024/01/23 00:51:33;;;;;;;27.23;4.88;;;6.20;99.90;;;;;;5051920;28;20359;-79
2024/01/23 00:54:00;;;;;;;25.48;4.93;;;6.20;99.90;;;;;;5070453;28;20462;-79
2024/01/23 00:56:26;;;;;;;26.50;5.63;;;6.20;99.90;;;;;;5069639;28;20066;-80
2024/01/23 00:58:52;;;;;;;24.90;4.85;;;6.20;99.90;;;;;;5070381;28;20108;-79
2024/01/23 01:01:17;;;;;;;26.92;5.93;;;6.20;99.90;;;;;;5070453;28;20424;-80
2024/01/23 01:03:43;;;;;;;35.05;6.18;;;6.10;99.90;;;;;;5070694;28;20447;-79
2024/01/23 01:06:09;;;;;;;27.52;4.72;;;6.10;99.90;;;;;;5071796;28;20024;-80
2024/01/23 01:08:35;;;;;;;24.38;5.10;;;6.20;99.90;;;;;;5070872;28;20033;-79
2024/01/23 01:11:00;;;;;;;24.20;5.57;;;6.20;99.90;;;;;;5071294;28;20150;-79
2024/01/23 01:13:26;;;;;;;32.10;5.85;;;6.20;99.90;;;;;;5069801;28;20426;-79
2024/01/23 01:15:52;;;;;;;29.02;5.13;;;6.20;99.90;;;;;;5070228;28;20060;-79
2024/01/23 01:18:18;;;;;;;27.13;5.25;;;6.20;99.90;;;;;;5069609;28;20039;-80
2024/01/23 01:20:44;;;;;;;24.50;4.63;;;6.20;99.90;;;;;;5070313;28;20101;-79
2024/01/23 01:23:10;;;;;;;30.20;5.90;;;6.20;99.90;;;;;;5070042;28;20020;-78
2024/01/23 01:25:36;;;;;;;24.20;5.68;;;6.20;99.90;;;;;;5051390;28;20438;-80
2024/01/23 01:28:01;;;;;;;28.27;5.68;;;6.20;99.90;;;;;;5070489;28;20032;-78
2024/01/23 01:30:28;;;;;;;29.67;6.18;;;6.20;99.90;;;;;;5069664;28;20515;-80
2024/01/23 01:32:54;;;;;;;24.80;5.47;;;6.30;99.90;;;;;;5070288;28;20056;-79
2024/01/23 01:35:20;;;;;;;32.38;5.47;;;6.30;99.90;;;;;;5069573;28;20086;-79
2024/01/23 01:37:45;;;;;;;29.77;4.97;;;6.30;99.90;;;;;;5069615;28;20029;-80
2024/01/23 01:40:13;;;;;;;26.77;6.15;;;6.30;99.90;;;;;;5070864;28;20033;-79
2024/01/23 01:42:41;;;;;;;25.67;4.22;;;6.30;99.90;;;;;;5073486;28;20021;-79
2024/01/23 01:45:08;;;;;;;23.08;5.28;;;6.30;99.90;;;;;;5073823;28;20036;-78
2024/01/23 01:47:34;;;;;;;27.55;4.82;;;6.30;99.90;;;;;;5073076;28;20016;-79
2024/01/23 01:50:00;;;;;;;25.77;4.93;;;6.30;99.90;;;;;;5073863;28;20025;-80
2024/01/23 01:52:26;;;;;;;23.30;4.80;;;6.30;99.90;;;;;;5073119;28;20100;-80
2024/01/23 01:54:52;;;;;;;31.08;5.45;;;6.40;99.90;;;;;;5073173;28;20135;-78
2024/01/23 01:57:21;;;;;;;26.48;5.18;;;6.40;99.90;;;;;;5072887;28;20150;-79
2024/01/23 01:59:48;;;;;;;21.45;5.32;;;6.40;99.90;;;;;;5073201;28;20029;-79
2024/01/23 02:02:14;;;;;;;31.88;5.22;;;6.40;99.90;;;;;;5073255;28;20036;-80
2024/01/23 02:04:40;;;;;;;25.85;4.93;;;6.40;99.90;;;;;;5073077;28;20058;-80
2024/01/23 02:07:06;;;;;;;38.08;5.20;;;6.40;99.90;;;;;;5073381;28;20028;-79
2024/01/23 02:09:32;;;;;;;23.73;4.65;;;6.40;99.90;;;;;;5072974;28;20039;-79
2024/01/23 02:12:00;;;;;;;22.90;3.75;;;6.40;99.90;;;;;;5054971;28;20025;-79
2024/01/23 02:14:26;;;;;;;24.10;5.15;;;6.40;99.90;;;;;;5072614;28;20024;-79
2024/01/23 02:16:52;;;;;;;24.52;4.25;;;6.40;99.90;;;;;;5055540;28;20066;-79
2024/01/23 02:19:18;;;;;;;26.30;4.70;;;6.50;99.90;;;;;;5055141;28;20505;-78
2024/01/23 02:21:44;;;;;;;27.58;4.60;;;6.50;99.90;;;;;;5075694;28;20028;-79
2024/01/23 02:24:10;;;;;;;21.48;3.88;;;6.50;99.90;;;;;;5073835;28;20393;-78
2024/01/23 02:26:36;;;;;;;31.70;5.03;;;6.50;99.90;;;;;;5073553;28;20020;-79
2024/01/23 02:29:01;;;;;;;20.25;4.30;;;6.50;99.90;;;;;;5054681;28;20040;-79
2024/01/23 02:31:27;;;;;;;28.98;5.50;;;6.50;99.90;;;;;;5072230;28;20021;-79
2024/01/23 02:33:53;;;;;;;22.88;4.15;;;6.50;99.90;;;;;;5054454;28;20039;-79
2024/01/23 02:36:19;;;;;;;21.80;3.72;;;6.50;99.90;;;;;;5072108;28;20085;-79
2024/01/23 02:38:44;;;;;;;26.42;4.82;;;6.50;99.90;;;;;;5072408;28;20085;-79
2024/01/23 02:41:11;;;;;;;26.10;5.03;;;6.50;99.90;;;;;;5054178;28;20032;-79
2024/01/23 02:43:37;;;;;;;28.00;4.45;;;6.60;99.90;;;;;;5071412;28;20028;-78
2024/01/23 02:46:06;;;;;;;22.48;4.47;;;6.60;99.90;;;;;;5054496;28;20082;-79
2024/01/23 02:48:31;;;;;;;22.50;3.67;;;6.60;99.90;;;;;;5071452;28;20052;-78
2024/01/23 02:50:57;;;;;;;31.05;5.15;;;6.60;99.90;;;;;;5053628;28;20060;-79
2024/01/23 02:53:23;;;;;;;20.95;3.70;;;6.60;99.90;;;;;;5052901;28;20029;-79
2024/01/23 02:55:48;;;;;;;25.42;4.35;;;6.60;99.90;;;;;;5053701;28;20156;-78
2024/01/23 02:58:15;;;;;;;24.75;5.10;;;6.60;99.90;;;;;;5053901;28;20028;-78
2024/01/23 03:00:42;;;;;;;22.38;5.25;;;6.60;99.90;;;;;;5071331;28;20032;-79
2024/01/23 03:03:09;;;;;;;19.85;3.38;;;6.60;99.90;;;;;;5071562;28;20124;-78
2024/01/23 03:05:35;;;;;;;23.02;3.90;;;6.60;99.90;;;;;;5071337;28;20071;-79
2024/01/23 03:08:00;;;;;;;19.27;4.25;;;6.50;99.90;;;;;;5071569;28;20052;-79
2024/01/23 03:10:26;;;;;;;19.30;4.32;;;6.60;99.90;;;;;;5071296;28;20033;-79
2024/01/23 03:12:52;;;;;;;27.20;4.68;;;6.60;99.90;;;;;;5071424;28;20111;-79
2024/01/23 03:15:18;;;;;;;25.35;4.20;;;6.70;99.90;;;;;;5070918;28;20320;-79
2024/01/23 03:17:44;;;;;;;22.35;4.50;;;6.70;99.90;;;;;;5036624;28;20021;-79
2024/01/23 03:20:10;;;;;;;25.10;5.75;;;6.60;99.90;;;;;;5071729;28;20068;-80
2024/01/23 03:22:36;;;;;;;26.33;4.30;;;6.70;99.90;;;;;;5053012;28;20058;-79
2024/01/23 03:25:02;;;;;;;22.13;5.15;;;6.70;99.90;;;;;;5052979;28;20055;-80
2024/01/23 03:27:28;;;;;;;20.52;4.70;;;6.70;99.90;;;;;;5070740;28;20115;-80
2024/01/23 03:29:54;;;;;;;24.63;4.18;;;6.70;99.90;;;;;;5071007;28;20024;-80
2024/01/23 03:32:19;;;;;;;22.90;4.75;;;6.70;99.90;;;;;;5070762;28;20052;-80
2024/01/23 03:34:45;;;;;;;24.85;4.97;;;6.80;99.90;;;;;;5071106;28;20445;-80
2024/01/23 03:37:11;;;;;;;18.67;3.58;;;6.80;99.90;;;;;;5070721;28;20123;-79
2024/01/23 03:39:37;;;;;;;23.42;4.50;;;6.80;99.90;;;;;;5070127;28;20438;-80
2024/01/23 03:42:03;;;;;;;22.23;3.60;;;6.80;99.90;;;;;;5071145;28;20029;-79
2024/01/23 03:44:29;;;;;;;23.05;4.28;;;6.90;99.90;;;;;;5070048;28;20105;-78
2024/01/23 03:46:56;;;;;;;18.67;4.03;;;7.00;99.90;;;;;;5071062;28;20186;-79
2024/01/23 03:49:22;;;;;;;20.70;3.88;;;7.00;99.90;;;;;;5035939;28;20039;-79
2024/01/23 03:51:48;;;;;;;20.80;3.83;;;7.10;99.90;;;;;;5071098;28;20048;-79
2024/01/23 03:54:14;;;;;;;19.38;4.18;;;7.10;99.90;;;;;;5071165;28;20039;-81
2024/01/23 03:56:41;;;;;;;22.02;3.30;;;7.20;99.90;;;;;;5070342;28;20121;-77
2024/01/23 03:59:06;;;;;;;21.73;3.33;;;7.30;99.90;;;;;;5052770;28;20123;-80
2024/01/23 04:01:32;;;;;;;22.13;3.97;;;7.30;99.90;;;;;;5070310;28;20111;-80
2024/01/23 04:03:58;;;;;;;19.38;3.60;;;7.40;99.90;;;;;;5070487;28;20533;-81
2024/01/23 04:06:24;;;;;;;21.50;4.03;;;7.40;99.90;;;;;;5070182;28;20112;-79
2024/01/23 04:08:49;;;;;;;19.50;3.15;;;7.40;99.90;;;;;;5070823;28;20392;-80
2024/01/23 04:11:15;;;;;;;20.60;3.90;;;7.50;99.90;;;;;;5071158;28;20111;-80
2024/01/23 04:13:41;;;;;;;19.42;3.42;;;7.60;99.90;;;;;;5070334;28;20032;-80
2024/01/23 04:16:07;;;;;;;18.15;3.83;;;7.50;99.90;;;;;;5052904;28;20036;-81
2024/01/23 04:18:33;;;;;;;21.48;4.07;;;7.50;99.90;;;;;;5070484;28;20331;-80
2024/01/23 04:20:59;;;;;;;22.48;3.60;;;7.50;99.90;;;;;;5070739;28;20111;-80
2024/01/23 04:23:25;;;;;;;19.98;3.63;;;7.50;99.90;;;;;;5052440;28;20020;-80
2024/01/23 04:25:51;;;;;;;14.13;3.10;;;7.50;99.90;;;;;;5071012;28;20028;-80
2024/01/23 04:28:16;;;;;;;16.42;3.17;;;7.50;99.90;;;;;;5071259;28;20028;-80
2024/01/23 04:30:42;;;;;;;14.02;3.28;;;7.50;99.90;;;;;;5070492;28;20025;-79
2024/01/23 04:33:08;;;;;;;18.40;3.72;;;7.50;99.90;;;;;;5070828;28;20056;-79
2024/01/23 04:35:34;;;;;;;14.48;3.15;;;7.50;99.90;;;;;;5070054;28;20075;-78
2024/01/23 04:38:03;;;;;;;20.67;3.25;;;7.40;99.90;;;;;;5070452;28;20485;-80
2024/01/23 04:40:28;;;;;;;17.48;3.10;;;7.40;99.90;;;;;;5070261;28;20028;-79
2024/01/23 04:42:54;;;;;;;15.43;3.40;;;7.40;99.90;;;;;;5070458;28;20442;-79
2024/01/23 04:45:20;;;;;;;18.90;3.72;;;7.40;99.90;;;;;;5070296;28;20477;-79
2024/01/23 04:47:45;;;;;;;19.70;3.33;;;7.50;99.90;;;;;;5070010;28;20028;-79
2024/01/23 04:50:11;;;;;;;18.35;3.03;;;7.50;99.90;;;;;;5052148;28;20021;-79
2024/01/23 04:52:37;;;;;;;17.73;3.47;;;7.50;99.90;;;;;;5069546;28;20027;-79
2024/01/23 04:55:04;;;;;;;20.83;3.30;;;7.50;99.90;;;;;;5070085;28;20047;-79
2024/01/23 04:57:31;;;;;;;16.35;3.08;;;7.50;99.90;;;;;;5069718;28;20048;-79
2024/01/23 04:59:58;;;;;;;13.27;2.47;;;7.50;99.90;;;;;;5070353;28;20091;-80
2024/01/23 05:02:24;;;;;;;16.30;3.67;;;7.50;99.90;;;;;;5069849;28;20097;-79
2024/01/23 05:04:50;;;;;;;14.45;3.35;;;7.40;99.90;;;;;;5069905;28;20028;-80
2024/01/23 05:07:15;;;;;;;13.38;2.60;;;7.40;99.90;;;;;;5070016;28;20036;-81
2024/01/23 05:09:42;;;;;;;17.65;3.55;;;7.40;99.90;;;;;;5069951;28;20410;-81
2024/01/23 05:12:09;;;;;;;22.42;3.28;;;7.40;99.90;;;;;;5070209;28;20088;-80
2024/01/23 05:14:34;;;;;;;17.42;3.22;;;7.30;99.90;;;;;;5069672;28;20054;-80
2024/01/23 05:17:00;;;;;;;19.95;2.90;;;7.30;99.90;;;;;;5073591;28;20031;-80
2024/01/23 05:19:26;;;;;;;16.75;3.92;;;7.30;99.90;;;;;;5055798;28;20126;-81
2024/01/23 05:21:51;;;;;;;11.20;2.55;;;7.30;99.90;;;;;;5056017;28;20053;-81
2024/01/23 05:24:17;;;;;;;23.90;3.38;;;7.40;99.90;;;;;;5073962;28;20033;-81
2024/01/23 05:26:43;;;;;;;18.02;4.07;;;7.30;99.90;;;;;;5073461;28;20028;-82
2024/01/23 05:29:11;;;;;;;16.48;3.42;;;7.30;99.90;;;;;;5074500;28;20032;-82
2024/01/23 05:31:36;;;;;;;17.52;2.70;;;7.30;99.90;;;;;;5072802;28;20453;-80
2024/01/23 05:34:02;;;;;;;14.65;2.65;;;7.30;99.90;;;;;;5073759;28;20028;-80
2024/01/23 05:36:28;;;;;;;18.48;3.30;;;7.20;99.90;;;;;;5073272;28;20035;-80
2024/01/23 05:38:54;;;;;;;17.25;2.78;;;7.20;99.90;;;;;;5073146;28;20123;-81
2024/01/23 05:41:19;;;;;;;14.23;2.97;;;7.20;99.90;;;;;;5073457;28;20381;-81
2024/01/23 05:43:46;;;;;;;19.88;3.20;;;7.20;99.90;;;;;;5054653;28;20469;-80
2024/01/23 05:46:11;;;;;;;17.80;3.35;;;7.20;99.90;;;;;;5073175;28;20025;-80
2024/01/23 05:48:37;;;;;;;12.85;2.85;;;7.20;99.90;;;;;;5072990;28;20025;-80
2024/01/23 05:51:03;;;;;;;16.70;3.28;;;7.10;99.90;;;;;;5073464;28;20029;-80
2024/01/23 05:53:29;;;;;;;20.17;3.35;;;7.10;99.90;;;;;;5054887;28;20031;-80
2024/01/23 05:55:54;;;;;;;21.83;3.90;;;7.20;99.90;;;;;;5072857;28;20040;-79
2024/01/23 05:58:21;;;;;;;17.00;3.20;;;7.20;99.90;;;;;;5073082;28;20029;-79
2024/01/23 06:00:46;;;;;;;17.65;3.10;;;7.20;99.90;;;;;;5072772;28;20035;-78
2024/01/23 06:03:12;;;;;;;14.80;3.00;;;7.20;99.90;;;;;;5055212;28;20028;-80
2024/01/23 06:05:38;;;;;;;13.10;3.30;;;7.20;99.90;;;;;;5072499;28;20587;-80
2024/01/23 06:08:04;;;;;;;14.73;2.70;;;7.20;99.90;;;;;;5073031;28;20416;-81
2024/01/23 06:10:30;;;;;;;16.17;3.40;;;7.10;99.90;;;;;;5055216;28;20036;-80
2024/01/23 06:12:55;;;;;;;22.00;3.60;;;7.10;99.90;;;;;;5054597;28;20029;-80
2024/01/23 06:15:21;;;;;;;12.80;2.95;;;7.10;99.90;;;;;;5073204;28;20101;-80
2024/01/23 06:17:47;;;;;;;15.52;3.33;;;7.10;99.90;;;;;;5071594;28;20028;-80
2024/01/23 06:20:12;;;;;;;11.63;2.42;;;7.00;99.90;;;;;;5072937;28;20029;-80
2024/01/23 06:22:40;;;;;;;14.75;2.78;;;7.20;99.90;;;;;;5072436;28;20032;-80
2024/01/23 06:25:08;;;;;;;14.77;3.20;;;7.10;99.90;;;;;;5072502;28;20025;-79
2024/01/23 06:27:35;;;;;;;20.92;3.50;;;7.10;99.90;;;;;;5072342;28;20133;-80
2024/01/23 06:30:01;;;;;;;15.50;2.67;;;7.20;99.90;;;;;;5072439;28;20632;-79
2024/01/23 06:32:27;;;;;;;13.05;2.72;;;7.20;99.90;;;;;;5072671;28;20151;-80
2024/01/23 06:34:53;;;;;;;8.45;1.73;;;7.30;99.90;;;;;;5072039;28;20186;-80
2024/01/23 06:37:20;;;;;;;5.70;1.02;;;7.40;99.90;;;;;;5072692;28;20028;-80
2024/01/23 06:39:47;;;;;;;3.33;1.20;;;7.80;99.90;;;;;;5071899;28;20115;-81
2024/01/23 06:42:13;;;;;;;0.60;0.40;;;8.00;99.90;;;;;;5072382;28;20028;-80
2024/01/23 06:44:39;;;;;;;1.55;0.30;;;8.40;99.90;;;;;;5053936;28;20024;-80
2024/01/23 06:47:05;;;;;;;3.15;0.57;;;8.60;99.90;;;;;;5053322;28;20104;-80
2024/01/23 06:49:31;;;;;;;1.88;0.52;;;8.80;99.90;;;;;;5072300;28;20024;-80
2024/01/23 06:51:57;;;;;;;1.77;0.50;;;8.80;99.90;;;;;;5054142;28;20055;-80
2024/01/23 06:54:23;;;;;;;1.17;0.30;;;8.90;99.90;;;;;;5073126;28;20469;-81
2024/01/23 06:56:48;;;;;;;3.00;0.60;;;9.10;99.90;;;;;;5071321;28;20462;-80
2024/01/23 06:59:15;;;;;;;1.40;0.30;;;9.20;99.90;;;;;;5071986;28;20032;-81
2024/01/23 07:01:41;;;;;;;2.17;0.50;;;9.20;99.90;;;;;;5071230;28;20079;-81
2024/01/23 07:04:07;;;;;;;3.75;0.40;;;9.30;99.90;;;;;;5071767;28;20402;-81
2024/01/23 07:06:33;;;;;;;2.40;1.00;;;9.40;99.90;;;;;;5071799;28;20020;-80
2024/01/23 07:08:59;;;;;;;1.63;0.40;;;9.40;99.90;;;;;;5072043;28;20029;-81
2024/01/23 07:11:25;;;;;;;3.05;0.80;;;9.50;99.90;;;;;;5054360;28;20028;-81
2024/01/23 07:13:51;;;;;;;2.30;0.38;;;9.60;99.90;;;;;;5071226;28;20020;-80
2024/01/23 07:16:17;;;;;;;1.63;0.30;;;9.80;99.90;;;;;;5072059;28;20029;-80
2024/01/23 07:18:43;;;;;;;2.03;0.40;;;9.90;99.90;;;;;;5070751;28;20033;-80
2024/01/23 07:21:12;;;;;;;0.50;0.28;;;10.00;99.90;;;;;;5071961;28;20044;-81
2024/01/23 07:23:38;;;;;;;3.83;0.82;;;10.10;99.90;;;;;;5071175;28;20052;-80
2024/01/23 07:26:05;;;;;;;0.40;0.40;;;10.10;99.90;;;;;;5071830;28;20035;-81
2024/01/23 07:28:31;;;;;;;4.22;0.60;;;10.20;99.90;;;;;;5071758;28;20029;-81
2024/01/23 07:30:57;;;;;;;1.58;0.43;;;10.20;99.90;;;;;;5071078;28;20024;-81
2024/01/23 07:33:22;;;;;;;0.95;0.40;;;10.30;99.90;;;;;;5071003;28;20462;-80
2024/01/23 07:35:50;;;;;;;2.47;0.30;;;10.30;99.90;;;;;;5070925;28;20103;-80
2024/01/23 07:38:16;;;;;;;0.30;0.28;;;10.40;99.90;;;;;;5070578;28;20516;-80
2024/01/23 07:40:42;;;;;;;3.85;0.63;;;10.40;99.90;;;;;;5070768;28;20032;-81
2024/01/23 07:43:07;;;;;;;1.17;0.30;;;10.40;99.90;;;;;;5071297;28;20036;-82
2024/01/23 07:45:34;;;;;;;1.25;0.68;;;10.60;99.90;;;;;;5071152;28;20052;-81
2024/01/23 07:48:00;;;;;;;1.20;0.38;;;10.50;99.90;;;;;;5070871;28;20020;-80
2024/01/23 07:50:27;;;;;;;0.80;0.10;;;10.60;99.90;;;;;;5070758;28;20027;-80
2024/01/23 07:52:54;;;;;;;0.38;0.10;;;10.60;99.90;;;;;;5070507;28;20021;-79
2024/01/23 07:55:19;;;;;;;1.27;0.20;;;10.70;99.90;;;;;;5070673;28;20539;-80
2024/01/23 07:57:45;;;;;;;3.10;0.30;;;10.70;99.90;;;;;;5051810;28;20102;-80
2024/01/23 08:00:17;;;;;;;0.00;0.00;;;10.70;99.90;;;;;;5070607;28;20101;-81
2024/01/23 08:02:42;;;;;;;1.63;0.25;;;10.80;99.90;;;;;;5070248;28;20120;-80
2024/01/23 08:05:08;;;;;;;0.88;0.10;;;10.90;99.90;;;;;;5070713;28;20454;-79
2024/01/23 08:07:34;;;;;;;2.35;0.20;;;10.90;99.90;;;;;;5071336;28;20063;-80
2024/01/23 08:10:00;;;;;;;0.77;0.10;;;11.00;99.90;;;;;;5070521;28;20075;-80
2024/01/23 08:12:26;;;;;;;0.32;0.10;;;11.10;99.90;;;;;;5070957;28;20029;-81
2024/01/23 08:14:52;;;;;;;0.13;0.13;;;11.10;99.90;;;;;;5070446;28;20033;-79
2024/01/23 08:17:19;;;;;;;1.45;0.10;;;11.20;99.90;;;;;;5071233;28;20378;-79
2024/01/23 08:19:45;;;;;;;0.30;0.30;;;11.20;99.90;;;;;;5069897;28;20090;-79
2024/01/23 08:22:11;;;;;;;0.77;0.20;;;11.20;99.90;;;;;;5070540;28;20032;-80
2024/01/23 08:24:37;;;;;;;0.20;0.10;;;11.30;99.90;;;;;;5070363;28;20458;-81
2024/01/23 08:27:04;;;;;;;0.10;0.10;;;11.30;99.90;;;;;;5070997;28;20096;-79
2024/01/23 08:29:30;;;;;;;0.88;0.43;;;11.40;99.90;;;;;;5054104;28;20434;-79
2024/01/23 08:31:56;;;;;;;0.10;0.10;;;11.30;99.90;;;;;;5054176;28;20040;-79
2024/01/23 08:34:22;;;;;;;0.68;0.10;;;11.40;99.90;;;;;;5072694;28;20020;-80
2024/01/23 08:36:48;;;;;;;0.98;0.13;;;11.40;99.90;;;;;;5053552;28;20032;-80
2024/01/23 08:39:15;;;;;;;0.88;0.30;;;11.40;99.90;;;;;;5053607;28;20032;-81
2024/01/23 08:41:41;;;;;;;0.98;0.25;;;11.50;99.90;;;;;;5071156;28;20119;-81
2024/01/23 08:44:07;;;;;;;1.42;0.82;;;11.50;99.90;;;;;;5052144;28;20103;-79
2024/01/23 08:46:33;;;;;;;0.88;0.30;;;11.40;99.90;;;;;;5070259;28;20068;-80
2024/01/23 08:48:59;;;;;;;1.20;0.20;;;11.40;99.90;;;;;;5069553;28;20873;-80
2024/01/23 08:51:26;;;;;;;2.67;0.70;;;11.30;99.90;;;;;;5073458;28;20111;-79
2024/01/23 08:53:52;;;;;;;1.92;0.82;;;11.30;99.90;;;;;;5073475;28;20024;-81
2024/01/23 08:56:20;;;;;;;3.63;0.50;;;11.40;99.90;;;;;;5073868;28;20041;-80
2024/01/23 08:58:47;;;;;;;0.73;0.38;;;11.50;99.90;;;;;;5073681;28;20024;-80
2024/01/23 09:01:12;;;;;;;3.17;0.45;;;11.40;99.90;;;;;;5074042;28;20048;-79
2024/01/23 09:03:39;;;;;;;2.90;0.32;;;11.50;99.90;;;;;;5074231;28;20059;-81
2024/01/23 09:06:05;;;;;;;3.35;0.40;;;11.50;99.90;;;;;;5055578;28;20029;-80
2024/01/23 09:08:30;;;;;;;2.30;0.40;;;11.60;99.90;;;;;;5074036;28;20047;-80
2024/01/23 09:10:57;;;;;;;2.17;0.22;;;11.60;99.90;;;;;;5074111;28;20025;-79
2024/01/23 09:13:22;;;;;;;1.20;0.40;;;11.60;99.90;;;;;;5074245;28;20044;-80
2024/01/23 09:15:48;;;;;;;2.30;0.40;;;11.60;99.90;;;;;;5073712;28;20029;-80
2024/01/23 09:18:14;;;;;;;2.13;0.68;;;11.70;99.90;;;;;;5074196;28;20036;-81
2024/01/23 09:20:40;;;;;;;3.55;1.38;;;11.60;99.90;;;;;;5073862;28;20393;-80
2024/01/23 09:23:06;;;;;;;0.55;0.38;;;11.80;99.90;;;;;;5073487;28;20036;-81
2024/01/23 09:25:32;;;;;;;4.35;0.50;;;11.80;99.90;;;;;;5055795;28;20032;-80
2024/01/23 09:27:58;;;;;;;3.10;0.85;;;11.90;99.90;;;;;;5072887;28;20381;-82
2024/01/23 09:30:24;;;;;;;1.00;0.43;;;12.00;99.90;;;;;;5073624;28;20112;-81
2024/01/23 09:32:50;;;;;;;4.03;0.70;;;12.10;99.90;;;;;;5073079;28;20037;-81
2024/01/23 09:35:15;;;;;;;3.85;0.93;;;12.30;99.90;;;;;;5073130;28;20046;-81
2024/01/23 09:37:41;;;;;;;1.27;0.57;;;12.30;99.90;;;;;;5055934;28;20024;-81
2024/01/23 09:40:10;;;;;;;1.48;0.40;;;12.30;99.90;;;;;;5072665;28;20115;-82
2024/01/23 09:42:39;;;;;;;2.42;0.57;;;12.40;99.90;;;;;;5073791;28;20032;-81
2024/01/23 09:45:14;;;;;;;1.60;0.77;;;12.50;99.90;;;;;;5073120;28;20048;-81
2024/01/23 09:47:41;;;;;;;0.75;0.50;;;12.60;99.90;;;;;;5073020;28;20036;-83
2024/01/23 09:50:13;;;;;;;4.03;0.90;;;12.60;99.90;;;;;;5055131;28;20374;-82
2024/01/23 09:52:42;;;;;;;1.90;0.70;;;12.70;99.90;;;;;;5073777;28;20094;-83
2024/01/23 09:55:08;;;;;;;1.27;0.70;;;12.70;99.90;;;;;;5073164;28;20415;-82
2024/01/23 09:57:33;;;;;;;2.85;0.50;;;12.70;99.90;;;;;;5054472;28;20230;-80
2024/01/23 09:59:59;;;;;;;2.88;0.47;;;12.60;99.90;;;;;;5071589;28;20123;-82
2024/01/23 10:02:25;;;;;;;2.38;0.52;;;12.70;99.90;;;;;;5072598;28;20461;-82
2024/01/23 10:04:53;;;;;;;3.05;0.45;;;12.70;99.90;;;;;;5072534;28;20119;-81
2024/01/23 10:07:19;;;;;;;2.08;0.80;;;12.70;99.90;;;;;;5072477;28;20028;-82
2024/01/23 10:09:48;;;;;;;4.95;0.80;;;12.70;99.90;;;;;;5072354;28;20056;-81
2024/01/23 10:12:14;;;;;;;1.60;0.60;;;12.70;99.90;;;;;;5072432;28;20033;-82
2024/01/23 10:14:43;;;;;;;3.42;0.63;;;12.70;99.90;;;;;;5072796;28;20035;-82
2024/01/23 10:17:10;;;;;;;1.42;0.60;;;12.80;99.90;;;;;;5072010;28;20108;-82
2024/01/23 10:19:37;;;;;;;2.92;0.70;;;12.80;99.90;;;;;;5072515;28;20029;-81
2024/01/23 10:22:03;;;;;;;4.68;0.60;;;12.80;99.90;;;;;;5071961;28;20453;-80
2024/01/23 10:24:29;;;;;;;2.33;0.50;;;12.80;99.90;;;;;;5054098;28;20020;-82
2024/01/23 10:26:55;;;;;;;1.90;0.47;;;12.80;99.90;;;;;;5071722;28;20458;-81
2024/01/23 10:29:22;;;;;;;1.77;0.55;;;12.80;99.90;;;;;;5072036;28;20125;-81
2024/01/23 10:31:48;;;;;;;3.78;0.50;;;12.80;99.90;;;;;;5071997;28;20505;-81
2024/01/23 10:34:14;;;;;;;2.95;0.65;;;12.80;99.90;;;;;;5072707;28;20056;-81
2024/01/23 10:36:42;;;;;;;1.33;0.30;;;12.90;99.90;;;;;;5072055;28;20025;-80
2024/01/23 10:39:10;;;;;;;1.15;0.60;;;12.90;99.90;;;;;;5071660;28;20036;-83
2024/01/23 10:41:36;;;;;;;0.95;0.13;;;12.90;99.90;;;;;;5053750;28;20055;-82
2024/01/23 10:44:03;;;;;;;1.20;0.45;;;12.90;99.90;;;;;;5053323;28;20063;-85
2024/01/23 10:46:30;;;;;;;2.08;0.60;;;13.10;99.90;;;;;;5071930;28;20033;-83
2024/01/23 10:48:56;;;;;;;1.20;0.40;;;13.00;99.90;;;;;;5071997;28;20135;-84
2024/01/23 10:51:28;;;;;;;0.60;0.40;;;13.20;99.90;;;;;;5072186;28;20390;-84
2024/01/23 10:54:01;;;;;;;1.02;0.50;;;13.20;99.90;;;;;;5071563;28;20028;-83
2024/01/23 10:56:41;;;;;;;1.52;0.40;;;13.20;99.90;;;;;;5072345;28;20089;-83
2024/01/23 10:59:17;;;;;;;0.43;0.20;;;13.40;99.90;;;;;;5072117;28;20029;-84
2024/01/23 11:01:45;;;;;;;1.00;0.50;;;13.40;99.90;;;;;;5072485;28;20028;-84
2024/01/23 11:04:15;;;;;;;1.42;0.50;;;13.40;99.90;;;;;;5072598;28;20169;-85
2024/01/23 11:07:02;;;;;;;1.38;0.47;;;13.50;99.90;;;;;;5054304;28;20024;-86
2024/01/23 11:09:44;;;;;;;1.83;0.57;;;13.50;99.90;;;;;;5071861;28;20071;-85
2024/01/23 11:12:48;;;;;;;1.15;0.15;;;13.50;99.90;;;;;;5053399;28;20032;-82
2024/01/23 11:15:15;;;;;;;1.83;0.30;;;13.50;99.90;;;;;;5072180;28;20248;-85
2024/01/23 11:17:41;;;;;;;0.80;0.25;;;13.70;99.90;;;;;;5072428;28;20198;-85
2024/01/23 11:20:09;;;;;;;1.88;0.38;;;13.70;99.90;;;;;;5071881;28;20174;-83
2024/01/23 11:22:36;;;;;;;0.50;0.15;;;13.70;99.90;;;;;;5072290;28;20039;-84
2024/01/23 11:25:05;;;;;;;0.73;0.32;;;13.70;99.90;;;;;;5071651;28;20028;-84
2024/01/23 11:27:33;;;;;;;0.20;0.20;;;13.80;99.90;;;;;;5072464;28;20104;-82
2024/01/23 11:30:04;;;;;;;0.55;0.20;;;13.80;99.90;;;;;;5072668;28;20125;-85
2024/01/23 11:32:30;;;;;;;0.70;0.30;;;13.90;99.90;;;;;;5055204;28;20032;-84
2024/01/23 11:35:12;;;;;;;3.05;0.28;;;13.90;99.90;;;;;;5072650;28;20025;-84
2024/01/23 11:37:43;;;;;;;0.35;0.30;;;13.90;99.90;;;;;;5072135;28;20063;-83
2024/01/23 11:40:29;;;;;;;1.50;0.40;;;14.00;99.90;;;;;;5052905;28;20584;-84
2024/01/23 11:42:55;;;;;;;2.10;0.38;;;14.00;99.90;;;;;;5070791;28;20115;-82
2024/01/23 11:45:29;;;;;;;3.40;0.50;;;14.00;99.90;;;;;;5071824;28;20033;-84
2024/01/23 11:47:57;;;;;;;2.40;0.28;;;14.10;99.90;;;;;;5070937;28;20048;-83
2024/01/23 11:50:25;;;;;;;2.30;0.40;;;14.00;99.90;;;;;;5053983;28;20032;-84
2024/01/23 11:52:53;;;;;;;1.50;0.30;;;14.10;99.90;;;;;;5070846;28;20024;-83
2024/01/23 11:55:20;;;;;;;0.80;0.30;;;14.20;99.90;;;;;;5071065;28;20029;-81
2024/01/23 11:57:58;;;;;;;1.13;0.40;;;14.20;99.90;;;;;;5070780;28;20040;-84
2024/01/23 12:00:25;;;;;;;0.80;0.30;;;14.30;99.90;;;;;;5054546;28;20401;-84
2024/01/23 12:02:52;;;;;;;2.75;0.40;;;14.30;99.90;;;;;;5071522;28;20051;-84
2024/01/23 12:05:19;;;;;;;0.75;0.30;;;14.40;99.90;;;;;;5052776;28;20393;-85
2024/01/23 12:07:45;;;;;;;0.60;0.30;;;14.30;99.90;;;;;;5071612;28;20044;-84
2024/01/23 12:10:13;;;;;;;1.88;0.50;;;14.30;99.90;;;;;;5071752;28;20212;-83
2024/01/23 12:12:40;;;;;;;0.68;0.28;;;14.40;99.90;;;;;;5071540;28;20021;-83
2024/01/23 12:15:07;;;;;;;1.92;0.50;;;14.40;99.90;;;;;;5071417;28;20119;-85
2024/01/23 12:17:34;;;;;;;1.25;0.68;;;14.50;99.90;;;;;;5054611;28;20116;-82
2024/01/23 12:20:09;;;;;;;1.02;0.35;;;14.50;99.90;;;;;;5072858;28;20166;-82
2024/01/23 12:22:38;;;;;;;2.28;0.50;;;14.50;99.90;;;;;;5054508;28;20032;-83
2024/01/23 12:25:09;;;;;;;1.33;0.40;;;14.60;99.90;;;;;;5054542;28;20059;-82
2024/01/23 12:27:35;;;;;;;0.93;0.40;;;14.50;99.90;;;;;;5064304;28;20237;-83
2024/01/23 12:30:02;;;;;;;2.33;0.43;;;14.50;99.90;;;;;;5071765;28;20056;-84
2024/01/23 12:32:31;;;;;;;3.45;0.70;;;14.40;99.90;;;;;;5072831;28;20020;-82
2024/01/23 12:34:58;;;;;;;2.90;0.63;;;14.50;99.90;;;;;;5052568;28;20025;-82
2024/01/23 12:37:28;;;;;;;1.77;0.50;;;14.50;99.90;;;;;;5070387;28;20103;-83
2024/01/23 12:39:55;;;;;;;1.25;0.50;;;14.40;99.90;;;;;;5069559;28;20036;-83
2024/01/23 12:42:22;;;;;;;0.75;0.40;;;14.50;99.90;;;;;;5070452;28;20036;-83
2024/01/23 12:44:48;;;;;;;2.15;0.55;;;14.40;99.90;;;;;;5052355;28;20123;-82